Erie Indemnity Company-Cl A (ERIE) Latest Bloomsberg Price


Mffais Ranking #809 Overall / #15 Industry
Industry: P And C Insurance

Number of Companies: 84 (Ranking #1844 Overall/#36 Industry)
Inflow: $ 9,588 (K) (Ranking #2019 Overall/#41 Industry)
Outflow: $ -8,282 (K)
Mffais Flow: $ 1,306 (K) (Ranking #809 Overall/#15 Industry)


Receive a FREE weekly executive review of stocks moving into the top 10, taking the top industy spot or moving up within their industry. Sent directly to your Inbox every Saturday. Sign up today and get last week's review immediately sent to you.

We value and respect your privacy. Please read our Terms and Conditions which states our firm commitment to your privacy. Your email address will not be shared with a third party, nor will it be sold or used for purposes other than subscription for the weekly review.

Owner CPOR Shares Action Qty Chg Invested (K) Total Current Value (K)
Emerald Acquisition Ltd 2016-09-30 42,917 Added More 29,009 $ 2,823 $ 4,177
Prospector Partners Llc 2016-09-30 11,100 New Holding 11,100 $ 1,080 $ 1,080
Robeco Institutional Asset Management B V 2016-09-30 54,958 Added More 8,301 $ 807 $ 5,349
Aperio Group Llc 2016-09-30 11,734 Added More 7,429 $ 723 $ 1,142
Zacks Investment Management 2016-09-30 5,327 New Holding 5,327 $ 518 $ 518
Teachers Advisors Inc 2016-09-30 26,504 Added More 4,031 $ 392 $ 2,579
Cadence Capital Management Llc 2016-09-30 6,820 Added More 3,956 $ 385 $ 663
Sei Investments Co 2016-09-30 39,781 Added More 3,473 $ 338 $ 3,871
Ellington Management Group Llc 2016-09-30 5,800 Added More 3,300 $ 321 $ 564
Global X Management Co Llc 2016-09-30 2,847 New Holding 2,847 $ 277 $ 277
Omers Administration Corp 2016-09-30 24,900 Added More 2,800 $ 272 $ 2,423
Rhumbline Advisers 2016-09-30 47,177 Added More 2,510 $ 244 $ 4,591
Blackrock Inc 2016-09-30 8,061 Added More 2,406 $ 234 $ 784
Martingale Asset Management L P 2016-09-30 44,253 Added More 2,400 $ 233 $ 4,307
Advisors Asset Management Inc 2016-09-30 39,206 Added More 2,068 $ 201 $ 3,815
Chicago Equity Partners Llc 2016-09-30 2,020 New Holding 2,020 $ 196 $ 196
Capstone Asset Management Co 2016-09-30 2,006 New Holding 2,006 $ 195 $ 195
Sandy Spring Bank 2016-09-30 1,800 New Holding 1,800 $ 175 $ 175
California State Teachers Retirement System 2016-09-30 52,386 Added More 400 $ 38 $ 5,098
Qs Investors Llc 2016-09-30 1,255 Added More 294 $ 28 $ 122
Pnc Financial Services Group Inc 2016-09-30 4,917,592 Added More 231 $ 22 $ 478,629
Pacer Advisors Inc 2016-09-30 2,579 Added More 178 $ 17 $ 251
Torray Llc 2016-09-30 8,825 Added More 150 $ 14 $ 858
Guggenheim Capital Llc 2016-09-30 21,962 Added More 143 $ 13 $ 2,137
Quadrant Capital Group Llc 2016-09-30 184 Added More 128 $ 12 $ 17
Zurcher Kantonalbank Zurich Cantonalbank 2016-09-30 997 Added More 104 $ 10 $ 97
Ladenburg Thalmann Financial Services Inc 2016-09-30 3,619 Added More 55 $ 5 $ 352
Columbia Asset Management 2016-09-30 67,846 Added More 45 $ 4 $ 6,603
Gierl Augustine Investment Management Inc 2016-09-30 619 Added More 5 $ 0 $ 60
Kanaly Trust Co 2016-09-30 52 No Change 0 $ 0 $ 5
Royce Associates Lp 2016-09-30 413,100 No Change 0 $ 0 $ 40,207
Panagora Asset Management Inc 2016-09-30 2,102 No Change 0 $ 0 $ 204
Culbertson A N Co Inc 2016-09-30 6,200 No Change 0 $ 0 $ 603
Legal General Group Plc 2016-09-30 737 No Change 0 $ 0 $ 71
Parkwood Llc 2016-09-30 5,339 No Change 0 $ 0 $ 519
Utah Retirement Systems 2016-09-30 4,434 No Change 0 $ 0 $ 431
Old Republic International Corp 2016-09-30 222,600 No Change 0 $ 0 $ 21,665
Arbiter Partners Capital Management Llc 2016-09-30 9,099 No Change 0 $ 0 $ 885
First Quadrant L P Ca 2016-09-30 7,200 No Change 0 $ 0 $ 700
Emerald Advisers Inc Pa 2016-09-30 33,799 No Change 0 $ 0 $ 3,289
Courier Capital Corp 2016-09-30 3,000 No Change 0 $ 0 $ 291
Enterprise Financial Services Corp 2016-09-30 50 No Change 0 $ 0 $ 4
Nisa Investment Advisors Llc 2016-09-30 2,300 No Change 0 $ 0 $ 223
Mackenzie Financial Corp 2016-09-30 7,241 No Change 0 $ 0 $ 704
Next Financial Group Inc 2016-09-30 870 No Change 0 $ 0 $ 84
Brown Brothers Harriman Co 2016-09-30 300 No Change 0 $ 0 $ 29
Cambridge Investment Research Advisors Inc 2016-09-30 4,135 No Change 0 $ 0 $ 402
Msi Financial Services Inc 2016-09-30 812 No Change 0 $ 0 $ 79
Wedgewood Investors Inc Pa 2016-09-30 53,526 Sold Some -4 $ -0 $ 5,209
Stifel Financial Corp 2016-09-30 9,000 Sold Some -13 $ -1 $ 875
Oshaughnessy Asset Management Llc 2016-09-30 4,326 Sold Some -30 $ -2 $ 421
American International Group Inc 2016-09-30 622 Sold Some -36 $ -3 $ 60
Sullivan Bruyette Speros Blaney Inc 2016-09-30 8,985 Sold Some -50 $ -4 $ 874
Advisor Group Inc 2016-09-30 0 Sold All -50 $ -4 $ 0
Raymond James Financial Services Advisors Inc 2016-09-30 10,595 Sold Some -60 $ -5 $ 1,031
Cutler Group Lp 2016-09-30 0 Sold All -100 $ -9 $ 0
Fifth Third Bancorp 2016-09-30 0 Sold All -120 $ -11 $ 0
Blackrock Investment Management Llc 2016-09-30 9,829 Sold Some -134 $ -13 $ 956
Ibm Retirement Fund 2016-09-30 2,327 Sold Some -135 $ -13 $ 226
Us Bancorp De 2016-09-30 462 Sold Some -256 $ -24 $ 44
Checchi Capital Advisers Llc 2016-09-30 0 Sold All -278 $ -27 $ 0
Hsbc Holdings Plc 2016-09-30 2,539 Sold Some -285 $ -27 $ 247
Horizon Kinetics Llc 2016-09-30 4,079 Sold Some -365 $ -35 $ 397
Tower Research Capital Llc Trc 2016-09-30 0 Sold All -650 $ -63 $ 0
Teacher Retirement System Of Texas 2016-09-30 2,739 Sold Some -838 $ -81 $ 266
Commerce Bank 2016-09-30 8,945 Sold Some -885 $ -86 $ 870
Proshare Advisors Llc 2016-09-30 2,437 Sold Some -899 $ -87 $ 237
Fuller Thaler Asset Management Inc 2016-09-30 0 Sold All -1,200 $ -116 $ 0
Swiss National Bank 2016-09-30 40,509 Sold Some -1,500 $ -145 $ 3,942
Sg Americas Securities Llc 2016-09-30 0 Sold All -1,517 $ -147 $ 0
Creative Planning 2016-09-30 4,799 Sold Some -1,936 $ -188 $ 467
Rafferty Asset Management Llc 2016-09-30 0 Sold All -2,624 $ -255 $ 0
Menta Capital Llc 2016-09-30 0 Sold All -3,204 $ -311 $ 0
A R T Advisors Llc 2016-09-30 0 Sold All -3,582 $ -348 $ 0
New York State Common Retirement Fund 2016-09-30 189,108 Sold Some -3,700 $ -360 $ 18,405
Bishop Co Investment Management Llc 2016-09-30 9,340 Sold Some -3,793 $ -369 $ 909
Kcg Holdings Inc 2016-09-30 0 Sold All -4,336 $ -422 $ 0
Parametric Portfolio Associates Llc 2016-09-30 70,155 Sold Some -5,043 $ -490 $ 6,828
Clinton Group Inc 2016-09-30 0 Sold All -5,243 $ -510 $ 0
Babson Capital Management Llc 2016-09-30 2,290 Sold Some -5,400 $ -525 $ 222
Nomura Asset Management Co Ltd 2016-09-30 0 Sold All -7,500 $ -729 $ 0
Capital Fund Management S A 2016-09-30 7,642 Sold Some -8,858 $ -862 $ 743
Northern Trust Corp 2016-09-30 134,379 Sold Some -10,120 $ -984 $ 13,079
Dimensional Fund Advisors Lp 2016-09-30 264,841 Sold Some -10,349 $ -1,007 $ 25,776